Wetterdaten: Woche 24.06.19 - 30.06.19 (KW26)
Datum Zeit Temp. Aussen Temp. o. S. +5cm Feuchte Auss Luftdruck Regen Sonnenschein Regendauer Solar Windben Empfang
24.06.2019 00:00 21,1 C 18,9 C 17,9 C 71 % 1018,1 hPa 0,0 l/m 0,00 h 0,00 h 0 W/m 0,0 km/h (0 Bft) 99,21 %
24.06.2019 01:00 20,0 C 18,1 C 16,9 C 72 % 1018,4 hPa 0,0 l/m 0,00 h 0,00 h 0 W/m 0,0 km/h (0 Bft) 96,88 %
24.06.2019 02:00 19,1 C 17,5 C 16,7 C 75 % 1018,7 hPa 0,0 l/m 0,00 h 0,00 h 0 W/m 0,0 km/h (0 Bft) 96,01 %
24.06.2019 03:00 18,5 C 17,1 C 16,3 C 78 % 1018,7 hPa 0,0 l/m 0,00 h 0,00 h 0 W/m 0,0 km/h (0 Bft) 99,72 %
24.06.2019 04:00 18,2 C 17,0 C 16,0 C 79 % 1018,2 hPa 0,0 l/m 0,00 h 0,00 h 0 W/m 0,0 km/h (0 Bft) 96,08 %
24.06.2019 05:00 18,3 C 17,8 C 16,6 C 82 % 1018,3 hPa 0,0 l/m 0,00 h 0,00 h 13 W/m 0,0 km/h (0 Bft) 97,79 %
24.06.2019 06:00 18,9 C 19,1 C 17,5 C 84 % 1018,5 hPa 0,0 l/m 0,00 h 0,00 h 36 W/m 1,0 km/h (0 Bft) 97,98 %
24.06.2019 07:00 20,6 C 22,3 C 20,3 C 83 % 1018,6 hPa 0,0 l/m 0,00 h 0,00 h 82 W/m 7,7 km/h (2 Bft) 96,30 %
24.06.2019 08:00 24,0 C 27,8 C 26,2 C 74 % 1018,8 hPa 0,0 l/m 0,00 h 0,00 h 72 W/m 12,1 km/h (2 Bft) 98,15 %
24.06.2019 09:00 26,7 C 29,7 C 30,5 C 66 % 1018,8 hPa 0,0 l/m 0,73 h 0,00 h 425 W/m 21,3 km/h (4 Bft) 94,92 %
24.06.2019 10:00 28,3 C 32,4 C 33,7 C 61 % 1018,6 hPa 0,0 l/m 1,00 h 0,00 h 683 W/m 21,4 km/h (4 Bft) 97,29 %
24.06.2019 11:00 29,5 C 33,6 C 35,5 C 58 % 1018,3 hPa 0,0 l/m 1,00 h 0,00 h 806 W/m 20,9 km/h (4 Bft) 98,72 %
24.06.2019 12:00 30,8 C 34,7 C 37,6 C 54 % 1018,0 hPa 0,0 l/m 1,00 h 0,00 h 892 W/m 21,9 km/h (4 Bft) 96,39 %
24.06.2019 13:00 31,4 C 34,4 C 37,5 C 51 % 1017,7 hPa 0,0 l/m 1,00 h 0,00 h 859 W/m 23,6 km/h (4 Bft) 97,79 %
24.06.2019 14:00 32,1 C 35,0 C 37,8 C 50 % 1017,5 hPa 0,0 l/m 1,00 h 0,00 h 882 W/m 20,7 km/h (4 Bft) 98,65 %
24.06.2019 15:00 33,2 C 35,0 C 33,2 C 48 % 1017,3 hPa 0,0 l/m 1,00 h 0,00 h 853 W/m 19,3 km/h (3 Bft) 96,28 %
24.06.2019 16:00 33,4 C 33,1 C 33,1 C 47 % 1017,1 hPa 0,0 l/m 0,97 h 0,00 h 705 W/m 18,6 km/h (3 Bft) 96,65 %
24.06.2019 17:00 33,5 C 32,5 C 32,2 C 46 % 1017,0 hPa 0,0 l/m 0,90 h 0,00 h 506 W/m 17,0 km/h (3 Bft) 98,65 %
24.06.2019 18:00 33,8 C 32,5 C 31,8 C 45 % 1016,9 hPa 0,0 l/m 1,00 h 0,00 h 395 W/m 14,2 km/h (3 Bft) 98,82 %
24.06.2019 19:00 33,4 C 31,6 C 30,0 C 48 % 1016,7 hPa 0,0 l/m 0,77 h 0,00 h 225 W/m 10,9 km/h (2 Bft) 97,58 %
24.06.2019 20:00 31,1 C 28,7 C 25,7 C 55 % 1016,5 hPa 0,0 l/m 0,00 h 0,00 h 33 W/m 6,5 km/h (2 Bft) 94,39 %
24.06.2019 21:00 28,6 C 26,0 C 23,7 C 62 % 1016,7 hPa 0,0 l/m 0,00 h 0,00 h 12 W/m 4,2 km/h (1 Bft) 99,79 %
24.06.2019 22:00 26,4 C 24,0 C 22,3 C 67 % 1017,1 hPa 0,0 l/m 0,00 h 0,00 h 0 W/m 2,7 km/h (1 Bft) 97,94 %
24.06.2019 23:00 25,8 C 25,0 C 23,3 C 68 % 1017,4 hPa 0,0 l/m 0,00 h 0,00 h 0 W/m 6,6 km/h (2 Bft) 95,09 %
25.06.2019 00:00 25,5 C 23,8 C 22,1 C 69 % 1017,4 hPa 0,0 l/m 0,00 h 0,00 h 0 W/m 4,3 km/h (1 Bft) 95,48 %
25.06.2019 01:00 24,8 C 23,6 C 22,1 C 70 % 1017,4 hPa 0,0 l/m 0,00 h 0,00 h 0 W/m 4,9 km/h (1 Bft) 97,79 %
25.06.2019 02:00 24,1 C 22,1 C 21,0 C 71 % 1017,3 hPa 0,0 l/m 0,00 h 0,00 h 0 W/m 4,0 km/h (1 Bft) 96,02 %
25.06.2019 03:00 23,6 C 22,0 C 21,1 C 72 % 1016,9 hPa 0,0 l/m 0,00 h 0,00 h 0 W/m 4,2 km/h (1 Bft) 98,15 %
25.06.2019 04:00 22,3 C 19,6 C 18,7 C 76 % 1016,6 hPa 0,0 l/m 0,00 h 0,00 h 0 W/m 0,0 km/h (0 Bft) 98,13 %
25.06.2019 05:00 21,2 C 20,4 C 18,9 C 78 % 1016,5 hPa 0,0 l/m 0,00 h 0,00 h 13 W/m 0,0 km/h (0 Bft) 97,44 %
25.06.2019 06:00 21,8 C 22,0 C 20,4 C 76 % 1016,4 hPa 0,0 l/m 0,00 h 0,00 h 36 W/m 5,2 km/h (1 Bft) 96,54 %
25.06.2019 07:00 23,6 C 24,2 C 23,2 C 71 % 1016,7 hPa 0,0 l/m 0,00 h 0,00 h 109 W/m 11,6 km/h (2 Bft) 99,00 %
25.06.2019 08:00 25,7 C 27,5 C 26,0 C 66 % 1016,6 hPa 0,0 l/m 0,00 h 0,00 h 188 W/m 21,1 km/h (4 Bft) 98,29 %
25.06.2019 09:00 27,1 C 28,8 C 28,4 C 64 % 1016,4 hPa 0,0 l/m 0,43 h 0,00 h 311 W/m 20,7 km/h (4 Bft) 95,09 %
25.06.2019 10:00 28,8 C 32,0 C 32,5 C 61 % 1016,5 hPa 0,0 l/m 0,90 h 0,00 h 539 W/m 20,8 km/h (4 Bft) 99,43 %
25.06.2019 11:00 31,5 C 36,0 C 37,5 C 56 % 1016,4 hPa 0,0 l/m 1,00 h 0,00 h 813 W/m 23,7 km/h (4 Bft) 97,37 %
25.06.2019 12:00 33,3 C 37,6 C 39,9 C 52 % 1016,4 hPa 0,0 l/m 1,00 h 0,00 h 894 W/m 21,2 km/h (4 Bft) 96,47 %
25.06.2019 13:00 34,2 C 37,5 C 40,7 C 50 % 1016,3 hPa 0,0 l/m 1,00 h 0,00 h 916 W/m 24,8 km/h (4 Bft) 99,15 %
25.06.2019 14:00 35,0 C 38,0 C 40,7 C 49 % 1016,1 hPa 0,0 l/m 1,00 h 0,00 h 854 W/m 20,8 km/h (4 Bft) 96,35 %
25.06.2019 15:00 35,9 C 37,5 C 36,2 C 47 % 1016,0 hPa 0,0 l/m 0,97 h 0,00 h 758 W/m 18,0 km/h (3 Bft) 99,00 %
25.06.2019 16:00 36,7 C 36,7 C 36,4 C 45 % 1015,8 hPa 0,0 l/m 1,00 h 0,00 h 725 W/m 18,7 km/h (3 Bft) 98,36 %
25.06.2019 17:00 37,4 C 36,5 C 36,0 C 42 % 1015,9 hPa 0,0 l/m 1,00 h 0,00 h 585 W/m 15,1 km/h (3 Bft) 94,80 %
25.06.2019 18:00 36,8 C 35,7 C 34,8 C 45 % 1016,2 hPa 0,0 l/m 1,00 h 0,00 h 443 W/m 12,1 km/h (2 Bft) 98,79 %
25.06.2019 19:00 35,3 C 33,5 C 32,8 C 49 % 1016,6 hPa 0,0 l/m 0,77 h 0,00 h 203 W/m 8,9 km/h (2 Bft) 99,08 %
25.06.2019 20:00 33,3 C 31,2 C 30,4 C 57 % 1017,2 hPa 0,0 l/m 0,00 h 0,00 h 60 W/m 6,0 km/h (2 Bft) 95,74 %
25.06.2019 21:00 31,4 C 29,2 C 28,2 C 62 % 1017,6 hPa 0,0 l/m 0,00 h 0,00 h 20 W/m 3,5 km/h (1 Bft) 97,28 %
25.06.2019 22:00 29,6 C 27,0 C 25,4 C 66 % 1018,2 hPa 0,0 l/m 0,00 h 0,00 h 0 W/m 1,4 km/h (1 Bft) 98,36 %
25.06.2019 23:00 27,9 C 25,7 C 24,2 C 70 % 1018,8 hPa 0,0 l/m 0,00 h 0,00 h 0 W/m 2,8 km/h (1 Bft) 98,22 %
26.06.2019 00:00 26,8 C 25,0 C 24,4 C 74 % 1019,5 hPa 0,0 l/m 0,00 h 0,00 h 0 W/m 4,6 km/h (1 Bft) 96,00 %
26.06.2019 01:00 25,8 C 23,6 C 23,3 C 80 % 1020,0 hPa 0,0 l/m 0,00 h 0,00 h 0 W/m 2,6 km/h (1 Bft) 97,79 %
26.06.2019 02:00 24,7 C 22,9 C 22,5 C 84 % 1020,5 hPa 0,0 l/m 0,00 h 0,00 h 0 W/m 0,9 km/h (0 Bft) 99,07 %
26.06.2019 03:00 23,9 C 22,0 C 21,6 C 86 % 1021,7 hPa 0,0 l/m 0,00 h 0,00 h 0 W/m 0,0 km/h (0 Bft) 96,09 %
26.06.2019 04:00 23,0 C 21,3 C 21,1 C 87 % 1023,1 hPa 0,0 l/m 0,00 h 0,00 h 0 W/m 0,6 km/h (0 Bft) 97,89 %
26.06.2019 05:00 22,3 C 21,0 C 21,1 C 89 % 1024,1 hPa 0,0 l/m 0,00 h 0,00 h 9 W/m 1,9 km/h (1 Bft) 99,72 %
26.06.2019 06:00 21,8 C 21,0 C 20,9 C 89 % 1024,8 hPa 0,0 l/m 0,00 h 0,00 h 29 W/m 2,5 km/h (1 Bft) 96,06 %
26.06.2019 07:00 21,9 C 21,9 C 21,3 C 89 % 1024,9 hPa 0,0 l/m 0,00 h 0,00 h 61 W/m 6,0 km/h (2 Bft) 97,51 %
26.06.2019 08:00 22,9 C 26,9 C 24,9 C 86 % 1024,9 hPa 0,0 l/m 0,00 h 0,00 h 105 W/m 8,3 km/h (2 Bft) 98,72 %
26.06.2019 09:00 25,0 C 30,3 C 30,1 C 79 % 1024,9 hPa 0,0 l/m 0,83 h 0,00 h 433 W/m 8,6 km/h (2 Bft) 96,15 %
26.06.2019 10:00 26,4 C 32,5 C 32,3 C 75 % 1024,9 hPa 0,0 l/m 1,00 h 0,00 h 633 W/m 7,9 km/h (2 Bft) 97,37 %
26.06.2019 11:00 28,0 C 34,8 C 34,5 C 71 % 1024,7 hPa 0,0 l/m 1,00 h 0,00 h 759 W/m 8,4 km/h (2 Bft) 97,65 %
26.06.2019 12:00 29,0 C 35,2 C 35,6 C 69 % 1024,9 hPa 0,0 l/m 1,00 h 0,00 h 841 W/m 10,6 km/h (2 Bft) 97,13 %
26.06.2019 13:00 30,6 C 36,6 C 37,7 C 66 % 1024,9 hPa 0,0 l/m 1,00 h 0,00 h 875 W/m 8,3 km/h (2 Bft) 99,00 %
26.06.2019 14:00 31,7 C 36,2 C 37,2 C 64 % 1024,8 hPa 0,0 l/m 1,00 h 0,00 h 874 W/m 9,1 km/h (2 Bft) 94,04 %
26.06.2019 15:00 32,0 C 34,3 C 31,3 C 63 % 1024,8 hPa 0,0 l/m 1,00 h 0,00 h 814 W/m 10,1 km/h (2 Bft) 98,73 %
26.06.2019 16:00 32,2 C 32,0 C 31,4 C 62 % 1024,6 hPa 0,0 l/m 1,00 h 0,00 h 713 W/m 11,8 km/h (2 Bft) 98,79 %
26.06.2019 17:00 32,2 C 31,4 C 30,7 C 62 % 1024,0 hPa 0,0 l/m 1,00 h 0,00 h 574 W/m 11,4 km/h (2 Bft) 96,94 %
26.06.2019 18:00 31,6 C 30,3 C 29,5 C 62 % 1023,8 hPa 0,0 l/m 1,00 h 0,00 h 407 W/m 12,0 km/h (2 Bft) 97,97 %
26.06.2019 19:00 29,1 C 27,4 C 26,0 C 65 % 1024,1 hPa 0,0 l/m 0,80 h 0,00 h 218 W/m 12,6 km/h (3 Bft) 95,44 %
26.06.2019 20:00 26,3 C 24,7 C 23,5 C 72 % 1024,4 hPa 0,0 l/m 0,00 h 0,00 h 48 W/m 10,8 km/h (2 Bft) 98,58 %
26.06.2019 21:00 24,7 C 23,2 C 22,5 C 73 % 1024,4 hPa 0,0 l/m 0,00 h 0,00 h 14 W/m 8,8 km/h (2 Bft) 99,50 %
26.06.2019 22:00 23,6 C 22,1 C 21,5 C 73 % 1024,7 hPa 0,0 l/m 0,00 h 0,00 h 0 W/m 7,6 km/h (2 Bft) 94,24 %
26.06.2019 23:00 22,4 C 20,9 C 20,5 C 74 % 1024,9 hPa 0,0 l/m 0,00 h 0,00 h 0 W/m 7,5 km/h (2 Bft) 99,08 %
27.06.2019 00:00 21,2 C 19,5 C 19,5 C 78 % 1025,0 hPa 0,0 l/m 0,00 h 0,00 h 0 W/m 6,9 km/h (2 Bft) 95,16 %
27.06.2019 01:00 19,8 C 18,2 C 18,2 C 79 % 1025,6 hPa 0,0 l/m 0,00 h 0,00 h 0 W/m 8,7 km/h (2 Bft) 95,35 %
27.06.2019 02:00 18,2 C 16,6 C 16,7 C 82 % 1026,1 hPa 0,0 l/m 0,00 h 0,00 h 0 W/m 9,0 km/h (2 Bft) 98,24 %
27.06.2019 03:00 17,0 C 15,4 C 15,6 C 85 % 1026,4 hPa 0,0 l/m 0,00 h 0,00 h 0 W/m 5,6 km/h (1 Bft) 98,01 %
27.06.2019 04:00 16,1 C 14,6 C 14,7 C 88 % 1026,6 hPa 0,0 l/m 0,00 h 0,00 h 0 W/m 4,7 km/h (1 Bft) 96,87 %
27.06.2019 05:00 15,4 C 14,4 C 14,4 C 89 % 1026,9 hPa 0,0 l/m 0,00 h 0,00 h 10 W/m 6,0 km/h (2 Bft) 98,01 %
27.06.2019 06:00 15,5 C 15,2 C 15,0 C 89 % 1027,2 hPa 0,0 l/m 0,00 h 0,00 h 44 W/m 7,4 km/h (2 Bft) 96,28 %
27.06.2019 07:00 15,9 C 16,1 C 15,7 C 87 % 1027,4 hPa 0,0 l/m 0,00 h 0,00 h 76 W/m 9,7 km/h (2 Bft) 98,58 %
27.06.2019 08:00 17,6 C 22,6 C 20,6 C 83 % 1027,8 hPa 0,0 l/m 0,00 h 0,00 h 69 W/m 8,9 km/h (2 Bft) 98,79 %
27.06.2019 09:00 20,2 C 25,8 C 28,0 C 73 % 1028,0 hPa 0,0 l/m 0,83 h 0,00 h 487 W/m 8,9 km/h (2 Bft) 96,01 %
27.06.2019 10:00 22,4 C 29,0 C 31,5 C 66 % 1028,1 hPa 0,0 l/m 1,00 h 0,00 h 722 W/m 8,1 km/h (2 Bft) 97,15 %
27.06.2019 11:00 23,9 C 31,1 C 33,1 C 60 % 1027,8 hPa 0,0 l/m 1,00 h 0,00 h 853 W/m 9,1 km/h (2 Bft) 97,64 %
27.06.2019 12:00 25,2 C 32,2 C 34,9 C 54 % 1027,7 hPa 0,0 l/m 1,00 h 0,00 h 941 W/m 8,2 km/h (2 Bft) 97,34 %
27.06.2019 13:00 27,0 C 32,9 C 37,1 C 49 % 1027,3 hPa 0,0 l/m 1,00 h 0,00 h 979 W/m 9,4 km/h (2 Bft) 98,79 %
27.06.2019 14:00 28,2 C 32,8 C 36,5 C 47 % 1027,0 hPa 0,0 l/m 1,00 h 0,00 h 966 W/m 10,6 km/h (2 Bft) 96,86 %
27.06.2019 15:00 29,1 C 31,5 C 28,7 C 45 % 1026,4 hPa 0,0 l/m 1,00 h 0,00 h 903 W/m 10,3 km/h (2 Bft) 97,87 %
27.06.2019 16:00 29,3 C 28,6 C 28,8 C 45 % 1026,0 hPa 0,0 l/m 1,00 h 0,00 h 792 W/m 11,1 km/h (2 Bft) 96,80 %
27.06.2019 17:00 29,3 C 28,1 C 27,8 C 46 % 1025,8 hPa 0,0 l/m 1,00 h 0,00 h 643 W/m 9,9 km/h (2 Bft) 98,07 %
27.06.2019 18:00 28,4 C 27,2 C 26,6 C 47 % 1025,5 hPa 0,0 l/m 1,00 h 0,00 h 469 W/m 11,1 km/h (2 Bft) 99,27 %
27.06.2019 19:00 26,7 C 25,2 C 23,8 C 52 % 1025,4 hPa 0,0 l/m 0,80 h 0,00 h 245 W/m 9,8 km/h (2 Bft) 94,57 %
27.06.2019 20:00 24,1 C 22,3 C 21,9 C 58 % 1025,4 hPa 0,0 l/m 0,00 h 0,00 h 33 W/m 8,7 km/h (2 Bft) 98,63 %
27.06.2019 21:00 22,0 C 20,1 C 20,1 C 64 % 1025,5 hPa 0,0 l/m 0,00 h 0,00 h 12 W/m 8,5 km/h (2 Bft) 99,36 %
27.06.2019 22:00 20,2 C 18,3 C 18,4 C 69 % 1025,9 hPa 0,0 l/m 0,00 h 0,00 h 0 W/m 7,8 km/h (2 Bft) 96,01 %
27.06.2019 23:00 18,7 C 16,9 C 16,9 C 71 % 1026,1 hPa 0,0 l/m 0,00 h 0,00 h 0 W/m 4,9 km/h (1 Bft) 97,37 %
28.06.2019 00:00 17,6 C 15,9 C 15,8 C 76 % 1026,0 hPa 0,0 l/m 0,00 h 0,00 h 0 W/m 5,2 km/h (1 Bft) 94,39 %
28.06.2019 01:00 16,5 C 15,0 C 15,0 C 79 % 1025,9 hPa 0,0 l/m 0,00 h 0,00 h 0 W/m 5,9 km/h (2 Bft) 97,08 %
28.06.2019 02:00 15,4 C 13,6 C 13,6 C 81 % 1025,8 hPa 0,0 l/m 0,00 h 0,00 h 0 W/m 4,5 km/h (1 Bft) 99,29 %
28.06.2019 03:00 14,4 C 12,5 C 12,4 C 83 % 1025,9 hPa 0,0 l/m 0,00 h 0,00 h 0 W/m 1,3 km/h (1 Bft) 96,33 %
28.06.2019 04:00 13,5 C 11,9 C 11,7 C 86 % 1025,8 hPa 0,0 l/m 0,00 h 0,00 h 0 W/m 2,2 km/h (1 Bft) 96,79 %
28.06.2019 05:00 12,8 C 11,3 C 11,2 C 88 % 1025,9 hPa 0,0 l/m 0,00 h 0,00 h 8 W/m 0,5 km/h (0 Bft) 97,83 %
28.06.2019 06:00 12,5 C 12,1 C 11,7 C 90 % 1026,1 hPa 0,0 l/m 0,00 h 0,00 h 19 W/m 2,5 km/h (1 Bft) 99,59 %
28.06.2019 07:00 13,2 C 13,6 C 12,9 C 91 % 1026,1 hPa 0,0 l/m 0,00 h 0,00 h 38 W/m 7,2 km/h (2 Bft) 94,52 %
28.06.2019 08:00 15,5 C 20,9 C 19,0 C 84 % 1026,0 hPa 0,0 l/m 0,00 h 0,00 h 69 W/m 9,5 km/h (2 Bft) 99,29 %
28.06.2019 09:00 18,4 C 23,9 C 26,8 C 74 % 1025,9 hPa 0,0 l/m 0,83 h 0,00 h 489 W/m 10,2 km/h (2 Bft) 98,65 %
28.06.2019 10:00 20,5 C 27,0 C 29,6 C 68 % 1025,6 hPa 0,0 l/m 1,00 h 0,00 h 713 W/m 8,4 km/h (2 Bft) 97,22 %
28.06.2019 11:00 22,4 C 29,0 C 31,5 C 63 % 1025,3 hPa 0,0 l/m 1,00 h 0,00 h 839 W/m 9,3 km/h (2 Bft) 97,79 %
28.06.2019 12:00 24,2 C 30,7 C 34,5 C 58 % 1024,9 hPa 0,0 l/m 1,00 h 0,00 h 931 W/m 9,3 km/h (2 Bft) 96,64 %
28.06.2019 13:00 26,1 C 31,6 C 36,5 C 53 % 1024,6 hPa 0,0 l/m 1,00 h 0,00 h 969 W/m 8,9 km/h (2 Bft) 98,22 %
28.06.2019 14:00 27,3 C 31,8 C 36,9 C 49 % 1024,1 hPa 0,0 l/m 1,00 h 0,00 h 957 W/m 8,6 km/h (2 Bft) 97,93 %
28.06.2019 15:00 28,4 C 30,6 C 29,0 C 46 % 1023,6 hPa 0,0 l/m 1,00 h 0,00 h 895 W/m 9,1 km/h (2 Bft) 97,29 %
28.06.2019 16:00 29,3 C 28,6 C 29,6 C 44 % 1023,1 hPa 0,0 l/m 1,00 h 0,00 h 785 W/m 9,5 km/h (2 Bft) 99,00 %
28.06.2019 17:00 29,5 C 28,1 C 28,4 C 42 % 1022,8 hPa 0,0 l/m 1,00 h 0,00 h 641 W/m 8,3 km/h (2 Bft) 95,16 %
28.06.2019 18:00 29,0 C 27,4 C 26,8 C 43 % 1022,3 hPa 0,0 l/m 1,00 h 0,00 h 467 W/m 8,1 km/h (2 Bft) 98,01 %
28.06.2019 19:00 28,0 C 25,9 C 23,7 C 45 % 1022,0 hPa 0,0 l/m 0,77 h 0,00 h 243 W/m 7,1 km/h (2 Bft) 99,43 %
28.06.2019 20:00 25,6 C 23,1 C 20,8 C 52 % 1021,9 hPa 0,0 l/m 0,00 h 0,00 h 32 W/m 6,0 km/h (2 Bft) 97,52 %
28.06.2019 21:00 23,4 C 20,8 C 19,4 C 56 % 1021,8 hPa 0,0 l/m 0,00 h 0,00 h 11 W/m 2,5 km/h (1 Bft) 95,95 %
28.06.2019 22:00 21,4 C 18,4 C 17,1 C 62 % 1022,0 hPa 0,0 l/m 0,00 h 0,00 h 0 W/m 0,3 km/h (0 Bft) 98,73 %
28.06.2019 23:00 19,6 C 16,9 C 15,8 C 66 % 1022,1 hPa 0,0 l/m 0,00 h 0,00 h 0 W/m 0,1 km/h (0 Bft) 97,51 %
29.06.2019 00:00 18,1 C 16,1 C 15,0 C 69 % 1022,0 hPa 0,0 l/m 0,00 h 0,00 h 0 W/m 0,0 km/h (0 Bft) 97,94 %
29.06.2019 01:00 17,3 C 16,0 C 14,9 C 72 % 1021,9 hPa 0,0 l/m 0,00 h 0,00 h 0 W/m 2,0 km/h (1 Bft) 96,44 %
29.06.2019 02:00 16,9 C 15,0 C 14,5 C 74 % 1021,5 hPa 0,0 l/m 0,00 h 0,00 h 0 W/m 1,6 km/h (1 Bft) 97,45 %
29.06.2019 03:00 16,0 C 14,3 C 13,9 C 77 % 1021,3 hPa 0,0 l/m 0,00 h 0,00 h 0 W/m 2,5 km/h (1 Bft) 99,64 %
29.06.2019 04:00 15,3 C 13,4 C 13,0 C 80 % 1020,8 hPa 0,0 l/m 0,00 h 0,00 h 0 W/m 1,4 km/h (1 Bft) 95,93 %
29.06.2019 05:00 14,5 C 12,8 C 12,3 C 82 % 1020,7 hPa 0,0 l/m 0,00 h 0,00 h 8 W/m 0,3 km/h (0 Bft) 97,58 %
29.06.2019 06:00 14,2 C 13,5 C 12,7 C 85 % 1020,4 hPa 0,0 l/m 0,00 h 0,00 h 18 W/m 1,1 km/h (1 Bft) 97,57 %
29.06.2019 07:00 14,9 C 15,6 C 14,1 C 90 % 1020,4 hPa 0,0 l/m 0,00 h 0,00 h 32 W/m 1,7 km/h (1 Bft) 98,59 %
29.06.2019 08:00 18,5 C 26,6 C 22,8 C 82 % 1020,4 hPa 0,0 l/m 0,00 h 0,00 h 47 W/m 7,1 km/h (2 Bft) 97,01 %
29.06.2019 09:00 24,2 C 29,8 C 32,8 C 60 % 1020,2 hPa 0,0 l/m 0,83 h 0,00 h 504 W/m 9,7 km/h (2 Bft) 97,20 %
29.06.2019 10:00 27,1 C 33,7 C 36,1 C 53 % 1019,9 hPa 0,0 l/m 1,00 h 0,00 h 737 W/m 9,0 km/h (2 Bft) 98,15 %
29.06.2019 11:00 29,1 C 35,0 C 37,4 C 47 % 1019,5 hPa 0,0 l/m 1,00 h 0,00 h 862 W/m 12,0 km/h (2 Bft) 97,49 %
29.06.2019 12:00 31,0 C 37,7 C 41,9 C 44 % 1019,0 hPa 0,0 l/m 1,00 h 0,00 h 944 W/m 9,4 km/h (2 Bft) 96,69 %
29.06.2019 13:00 32,5 C 38,1 C 43,4 C 39 % 1018,4 hPa 0,0 l/m 1,00 h 0,00 h 979 W/m 10,0 km/h (2 Bft) 99,50 %
29.06.2019 14:00 33,4 C 37,9 C 43,1 C 35 % 1017,8 hPa 0,0 l/m 1,00 h 0,00 h 968 W/m 10,9 km/h (2 Bft) 97,63 %
29.06.2019 15:00 34,3 C 36,4 C 34,5 C 32 % 1017,2 hPa 0,0 l/m 1,00 h 0,00 h 904 W/m 11,2 km/h (2 Bft) 94,47 %
29.06.2019 16:00 35,0 C 34,4 C 35,0 C 31 % 1016,5 hPa 0,0 l/m 1,00 h 0,00 h 793 W/m 10,6 km/h (2 Bft) 98,43 %
29.06.2019 17:00 35,9 C 34,4 C 34,1 C 31 % 1015,8 hPa 0,0 l/m 1,00 h 0,00 h 647 W/m 10,0 km/h (2 Bft) 97,63 %
29.06.2019 18:00 35,9 C 34,2 C 32,9 C 32 % 1015,3 hPa 0,0 l/m 1,00 h 0,00 h 472 W/m 8,2 km/h (2 Bft) 97,50 %
29.06.2019 19:00 35,4 C 33,1 C 31,2 C 32 % 1014,7 hPa 0,0 l/m 0,80 h 0,00 h 248 W/m 8,5 km/h (2 Bft) 99,43 %
29.06.2019 20:00 32,7 C 30,0 C 27,9 C 38 % 1014,3 hPa 0,0 l/m 0,00 h 0,00 h 30 W/m 5,7 km/h (1 Bft) 97,30 %
29.06.2019 21:00 29,6 C 25,8 C 24,5 C 46 % 1014,0 hPa 0,0 l/m 0,00 h 0,00 h 11 W/m 2,8 km/h (1 Bft) 96,22 %
29.06.2019 22:00 26,5 C 24,1 C 22,1 C 49 % 1013,9 hPa 0,0 l/m 0,00 h 0,00 h 0 W/m 3,6 km/h (1 Bft) 98,29 %
29.06.2019 23:00 26,0 C 25,4 C 23,8 C 48 % 1013,7 hPa 0,0 l/m 0,00 h 0,00 h 0 W/m 8,7 km/h (2 Bft) 96,17 %
30.06.2019 00:00 25,8 C 23,8 C 23,5 C 50 % 1013,6 hPa 0,0 l/m 0,00 h 0,00 h 0 W/m 7,3 km/h (2 Bft) 97,54 %
30.06.2019 01:00 24,2 C 22,5 C 22,3 C 54 % 1013,3 hPa 0,0 l/m 0,00 h 0,00 h 0 W/m 10,6 km/h (2 Bft) 97,72 %
30.06.2019 02:00 22,9 C 21,2 C 21,0 C 58 % 1012,9 hPa 0,0 l/m 0,00 h 0,00 h 0 W/m 8,4 km/h (2 Bft) 97,08 %
30.06.2019 03:00 21,7 C 20,1 C 19,9 C 61 % 1012,5 hPa 0,0 l/m 0,00 h 0,00 h 0 W/m 7,8 km/h (2 Bft) 96,51 %
30.06.2019 04:00 20,8 C 19,5 C 19,3 C 65 % 1012,1 hPa 0,0 l/m 0,00 h 0,00 h 0 W/m 11,4 km/h (2 Bft) 97,91 %
30.06.2019 05:00 20,3 C 19,1 C 18,9 C 66 % 1011,9 hPa 0,0 l/m 0,00 h 0,00 h 8 W/m 14,3 km/h (3 Bft) 97,94 %
30.06.2019 06:00 20,2 C 19,6 C 19,2 C 68 % 1011,9 hPa 0,0 l/m 0,00 h 0,00 h 23 W/m 14,3 km/h (3 Bft) 95,73 %
30.06.2019 07:00 21,2 C 21,3 C 20,6 C 67 % 1012,1 hPa 0,0 l/m 0,00 h 0,00 h 45 W/m 13,8 km/h (3 Bft) 96,87 %
30.06.2019 08:00 24,1 C 28,9 C 26,5 C 63 % 1012,3 hPa 0,0 l/m 0,00 h 0,00 h 70 W/m 9,6 km/h (2 Bft) 99,36 %
30.06.2019 09:00 28,3 C 32,6 C 33,1 C 57 % 1012,4 hPa 0,0 l/m 0,80 h 0,00 h 447 W/m 11,8 km/h (2 Bft) 97,44 %
30.06.2019 10:00 30,1 C 34,5 C 34,9 C 58 % 1012,9 hPa 0,0 l/m 1,00 h 0,00 h 654 W/m 12,1 km/h (2 Bft) 96,08 %
30.06.2019 11:00 31,3 C 36,3 C 36,8 C 59 % 1013,2 hPa 0,0 l/m 1,00 h 0,00 h 775 W/m 13,1 km/h (3 Bft) 99,64 %
30.06.2019 12:00 31,9 C 36,2 C 37,4 C 59 % 1014,0 hPa 0,0 l/m 1,00 h 0,00 h 854 W/m 14,9 km/h (3 Bft) 96,98 %
30.06.2019 13:00 32,0 C 35,6 C 36,4 C 58 % 1014,8 hPa 0,0 l/m 1,00 h 0,00 h 874 W/m 15,7 km/h (3 Bft) 96,95 %
30.06.2019 14:00 31,6 C 34,7 C 35,9 C 59 % 1015,0 hPa 0,0 l/m 1,00 h 0,00 h 844 W/m 12,9 km/h (3 Bft) 97,58 %
30.06.2019 15:00 31,4 C 33,6 C 30,6 C 57 % 1015,0 hPa 0,0 l/m 1,00 h 0,00 h 804 W/m 12,6 km/h (3 Bft) 97,72 %
30.06.2019 16:00 31,2 C 31,0 C 30,0 C 55 % 1014,7 hPa 0,0 l/m 0,80 h 0,00 h 584 W/m 8,4 km/h (2 Bft) 98,43 %
30.06.2019 17:00 29,9 C 29,3 C 28,7 C 55 % 1014,8 hPa 0,0 l/m 0,60 h 0,00 h 363 W/m 10,4 km/h (2 Bft) 97,50 %
30.06.2019 18:00 29,8 C 29,5 C 28,4 C 54 % 1014,9 hPa 0,0 l/m 0,83 h 0,00 h 389 W/m 11,3 km/h (2 Bft) 96,65 %
30.06.2019 19:00 28,3 C 27,0 C 26,0 C 56 % 1015,1 hPa 0,0 l/m 0,43 h 0,00 h 173 W/m 11,3 km/h (2 Bft) 98,17 %
30.06.2019 20:00 26,4 C 25,1 C 24,2 C 59 % 1015,3 hPa 0,0 l/m 0,67 h 0,00 h 95 W/m 12,5 km/h (3 Bft) 97,01 %
30.06.2019 21:00 24,6 C 22,5 C 21,6 C 59 % 1015,6 hPa 0,0 l/m 0,37 h 0,00 h 26 W/m 6,9 km/h (2 Bft) 96,91 %
30.06.2019 22:00 22,5 C 20,3 C 19,8 C 63 % 1016,0 hPa 0,0 l/m 0,00 h 0,00 h 0 W/m 3,4 km/h (1 Bft) 98,44 %
30.06.2019 23:00 21,2 C 19,3 C 18,9 C 64 % 1015,9 hPa 0,0 l/m 0,00 h 0,00 h 0 W/m 1,7 km/h (1 Bft) 96,94 %
Min-Datum _ 28.06.19 28.06.19 28.06.19 29.06.19 30.06.19 - - - - 24.06.19 25.06.19
_ Min-Zeit 05:56 05:16 05:14 15:38 05:28 - - - - 00:00 00:02
Minimum _ 12,4 C 11,1 C 11,1 C 29 % 1011,8 hPa - - - - 0,0 km/h (0 Bft) 14,29 %
Max-Datum _ 25.06.19 29.06.19 29.06.19 28.06.19 27.06.19 24.06.19 24.06.19 24.06.19 30.06.19 24.06.19 24.06.19
_ Max-Zeit 17:14 13:14 14:32 07:06 09:54 00:00 12:08 00:00 13:28 12:52 00:12
Maximum _ 37,5 C 40,6 C 45,6 C 92 % 1028,2 hPa 0,0 l/m 0,07 h 0,00 h 1056 W/m 45,1 km/h
O (6 Bft)
100,00 %
Durchschnitt _ 25,4 C 26,0 C 25,8 C 64 % 1020,2 hPa #0,0 l/m #73:26 h #0 min. 453 W/m 8,6 km/h (2 Bft) 97,46 %
© 2019 W. Hausmann